createdAt,value
2022-12-04T00:02:25.424Z,24.73
2022-12-04T00:04:51.986Z,24.60
2022-12-04T00:07:18.586Z,23.00
2022-12-04T00:09:45.273Z,22.93
2022-12-04T00:12:11.743Z,22.57
2022-12-04T00:15:00.780Z,20.00
2022-12-04T00:17:24.645Z,20.60
2022-12-04T00:19:51.090Z,25.53
2022-12-04T00:22:17.528Z,22.50
2022-12-04T00:24:44.138Z,20.73
2022-12-04T00:27:10.685Z,22.03
2022-12-04T00:29:37.118Z,23.47
2022-12-04T00:32:03.756Z,24.80
2022-12-04T00:34:30.287Z,22.90
2022-12-04T00:36:56.746Z,22.13
2022-12-04T00:39:23.198Z,18.40
2022-12-04T00:41:49.668Z,22.90
2022-12-04T00:44:16.108Z,19.20
2022-12-04T00:46:42.877Z,18.30
2022-12-04T00:49:09.354Z,19.93
2022-12-04T00:51:35.855Z,18.97
2022-12-04T00:54:02.387Z,18.20
2022-12-04T00:56:29.759Z,18.13
2022-12-04T00:58:58.761Z,18.47
2022-12-04T01:01:26.207Z,17.37
2022-12-04T01:03:54.820Z,18.80
2022-12-04T01:06:25.135Z,18.50
2022-12-04T01:08:53.367Z,19.03
2022-12-04T01:11:20.795Z,17.30
2022-12-04T01:13:47.672Z,17.90
2022-12-04T01:16:24.314Z,17.40
2022-12-04T01:18:51.557Z,16.73
2022-12-04T01:21:18.829Z,17.13
2022-12-04T01:23:45.691Z,16.10
2022-12-04T01:26:12.857Z,15.63
2022-12-04T01:28:39.802Z,16.20
2022-12-04T01:31:15.904Z,17.30
2022-12-04T01:33:44.000Z,17.27
2022-12-04T01:36:16.285Z,17.83
2022-12-04T01:38:43.658Z,17.80
2022-12-04T01:41:12.385Z,17.07
2022-12-04T01:43:39.589Z,16.63
2022-12-04T01:46:07.610Z,17.07
2022-12-04T01:48:37.470Z,16.60
2022-12-04T01:51:08.380Z,16.13
2022-12-04T01:53:38.303Z,15.13
2022-12-04T01:56:05.250Z,15.27
2022-12-04T01:58:36.358Z,15.70
2022-12-04T02:01:09.069Z,16.60
2022-12-04T02:03:37.700Z,16.37
2022-12-04T02:06:04.797Z,17.30
2022-12-04T02:08:32.102Z,16.20
2022-12-04T02:11:29.550Z,16.03
2022-12-04T02:14:25.874Z,14.17
2022-12-04T02:17:19.063Z,16.47
2022-12-04T02:20:04.843Z,14.93
2022-12-04T02:22:52.451Z,16.10
2022-12-04T02:25:31.948Z,15.80
2022-12-04T02:28:08.092Z,17.17
2022-12-04T02:30:38.966Z,16.47
2022-12-04T02:33:17.852Z,16.50
2022-12-04T02:35:55.410Z,17.53
2022-12-04T02:38:37.332Z,16.43
2022-12-04T02:41:13.223Z,15.60
2022-12-04T02:43:42.328Z,16.93
2022-12-04T02:46:14.980Z,16.07
2022-12-04T02:48:45.442Z,16.67
2022-12-04T02:51:14.824Z,16.63
2022-12-04T02:53:46.816Z,16.47
2022-12-04T02:56:17.785Z,17.03
2022-12-04T02:58:46.560Z,15.80
2022-12-04T03:01:19.946Z,16.97
2022-12-04T03:04:04.832Z,17.67
2022-12-04T03:06:35.679Z,16.60
2022-12-04T03:09:11.792Z,17.30
2022-12-04T03:11:40.408Z,17.00
2022-12-04T03:14:20.441Z,15.67
2022-12-04T03:16:50.035Z,16.33
2022-12-04T03:19:21.402Z,16.27
2022-12-04T03:22:02.725Z,16.50
2022-12-04T03:24:38.989Z,17.20
2022-12-04T03:27:17.485Z,17.10
2022-12-04T03:29:51.828Z,17.57
2022-12-04T03:32:43.250Z,17.70
2022-12-04T03:35:15.655Z,17.13
2022-12-04T03:38:00.632Z,18.10
2022-12-04T03:40:57.117Z,17.30
2022-12-04T03:43:31.819Z,17.07
2022-12-04T03:46:24.240Z,17.00
2022-12-04T03:48:56.995Z,16.57
2022-12-04T03:51:32.033Z,16.97
2022-12-04T03:54:08.156Z,15.63
2022-12-04T03:56:39.952Z,17.37
2022-12-04T03:59:17.167Z,16.87
2022-12-04T04:01:48.637Z,17.97
2022-12-04T04:04:25.764Z,17.57
2022-12-04T04:07:02.928Z,17.03
2022-12-04T04:09:35.090Z,16.23
2022-12-04T04:12:14.024Z,16.53
2022-12-04T04:15:09.100Z,16.03
2022-12-04T04:17:59.522Z,16.53
2022-12-04T04:21:05.880Z,15.93
2022-12-04T04:23:56.075Z,16.50
2022-12-04T04:26:24.129Z,17.37
2022-12-04T04:28:50.575Z,17.07
2022-12-04T04:31:32.545Z,17.13
2022-12-04T04:34:07.981Z,17.57
2022-12-04T04:36:55.754Z,17.10
2022-12-04T04:39:38.315Z,17.00
2022-12-04T04:42:16.880Z,17.10
2022-12-04T04:44:54.069Z,16.57
2022-12-04T04:47:32.459Z,16.83
2022-12-04T04:50:03.068Z,16.27
2022-12-04T04:52:31.212Z,16.57
2022-12-04T04:55:00.511Z,17.30
2022-12-04T04:57:35.663Z,17.03
2022-12-04T05:00:09.665Z,16.93
2022-12-04T05:02:36.453Z,17.43
2022-12-04T05:05:03.687Z,17.53
2022-12-04T05:07:30.182Z,17.43
2022-12-04T05:09:56.898Z,17.53
2022-12-04T05:12:23.644Z,16.90
2022-12-04T05:14:50.413Z,18.07
2022-12-04T05:17:17.264Z,18.47
2022-12-04T05:19:59.072Z,17.40
2022-12-04T05:22:31.951Z,18.37
2022-12-04T05:24:59.287Z,17.23
2022-12-04T05:27:27.732Z,17.30
2022-12-04T05:29:58.708Z,18.50
2022-12-04T05:32:28.169Z,17.70
2022-12-04T05:34:56.109Z,17.43
2022-12-04T05:37:23.360Z,16.87
2022-12-04T05:39:49.915Z,17.33
2022-12-04T05:42:17.021Z,17.87
2022-12-04T05:44:43.484Z,18.20
2022-12-04T05:47:10.414Z,18.60
2022-12-04T05:49:37.242Z,17.63
2022-12-04T05:52:05.117Z,18.37
2022-12-04T05:54:31.718Z,17.97
2022-12-04T05:56:58.439Z,17.60
2022-12-04T05:59:24.893Z,18.30
2022-12-04T06:01:51.376Z,17.57
2022-12-04T06:04:18.026Z,18.63
2022-12-04T06:06:44.707Z,17.43
2022-12-04T06:09:11.757Z,17.47
2022-12-04T06:11:40.363Z,16.60
2022-12-04T06:14:08.913Z,17.00
2022-12-04T06:16:38.365Z,17.07
2022-12-04T06:19:19.048Z,17.93
2022-12-04T06:21:47.464Z,16.63
2022-12-04T06:24:17.293Z,17.53
2022-12-04T06:27:11.140Z,16.50
2022-12-04T06:29:30.923Z,16.50
2022-12-04T06:31:57.491Z,17.03
2022-12-04T06:34:24.032Z,17.13
2022-12-04T06:36:50.464Z,17.10
2022-12-04T06:39:18.961Z,15.93
2022-12-04T06:41:47.368Z,16.57
2022-12-04T06:44:15.536Z,16.03
2022-12-04T06:46:46.903Z,15.83
2022-12-04T06:49:14.265Z,16.23
2022-12-04T06:51:40.919Z,16.47
2022-12-04T06:54:07.813Z,15.97
2022-12-04T06:56:34.355Z,15.87
2022-12-04T06:59:02.356Z,16.33
2022-12-04T07:01:30.744Z,16.30
2022-12-04T07:03:58.198Z,17.03
2022-12-04T07:06:30.068Z,16.13
2022-12-04T07:09:08.125Z,16.43
2022-12-04T07:11:34.586Z,15.53
2022-12-04T07:14:01.476Z,16.50
2022-12-04T07:16:28.758Z,15.57
2022-12-04T07:18:59.643Z,15.30
2022-12-04T07:21:29.323Z,15.03
2022-12-04T07:23:58.288Z,13.70
2022-12-04T07:26:26.387Z,14.90
2022-12-04T07:28:54.337Z,14.67
2022-12-04T07:31:22.797Z,14.07
2022-12-04T07:33:49.550Z,14.90
2022-12-04T07:36:19.432Z,14.80
2022-12-04T07:38:46.757Z,14.33
2022-12-04T07:41:13.777Z,14.60
2022-12-04T07:43:40.566Z,13.80
2022-12-04T07:46:13.324Z,13.57
2022-12-04T07:48:40.236Z,13.67
2022-12-04T07:51:10.292Z,13.10
2022-12-04T07:53:37.039Z,13.03
2022-12-04T07:56:05.467Z,12.50
2022-12-04T07:58:33.640Z,12.73
2022-12-04T08:01:06.018Z,13.03
2022-12-04T08:03:32.606Z,12.40
2022-12-04T08:06:03.739Z,12.77
2022-12-04T08:08:30.678Z,12.03
2022-12-04T08:10:58.196Z,11.80
2022-12-04T08:13:24.674Z,12.20
2022-12-04T08:15:51.512Z,13.07
2022-12-04T08:18:18.505Z,13.13
2022-12-04T08:20:45.002Z,12.23
2022-12-04T08:23:11.778Z,11.77
2022-12-04T08:25:40.491Z,13.47
2022-12-04T08:28:07.525Z,13.27
2022-12-04T08:30:35.595Z,11.77
2022-12-04T08:33:02.881Z,13.17
2022-12-04T08:35:29.408Z,12.87
2022-12-04T08:37:55.835Z,12.37
2022-12-04T08:40:23.235Z,12.23
2022-12-04T08:42:49.722Z,11.93
2022-12-04T08:45:16.546Z,12.20
2022-12-04T08:47:44.923Z,11.73
2022-12-04T08:50:14.683Z,11.70
2022-12-04T08:52:41.123Z,10.97
2022-12-04T08:55:08.177Z,11.77
2022-12-04T08:57:34.705Z,12.50
2022-12-04T09:00:01.651Z,12.23
2022-12-04T09:02:28.144Z,12.33
2022-12-04T09:04:54.705Z,12.63
2022-12-04T09:07:21.158Z,12.20
2022-12-04T09:09:48.679Z,12.00
2022-12-04T09:12:15.305Z,13.67
2022-12-04T09:14:41.758Z,13.47
2022-12-04T09:17:08.262Z,12.13
2022-12-04T09:19:35.962Z,13.43
2022-12-04T09:22:02.797Z,12.90
2022-12-04T09:24:30.922Z,12.33
2022-12-04T09:26:57.401Z,12.03
2022-12-04T09:29:23.901Z,12.40
2022-12-04T09:31:50.348Z,12.07
2022-12-04T09:34:16.827Z,13.83
2022-12-04T09:36:43.294Z,14.83
2022-12-04T09:39:10.280Z,13.20
2022-12-04T09:41:36.670Z,12.87
2022-12-04T09:44:20.829Z,12.93
2022-12-04T09:46:52.908Z,13.63
2022-12-04T09:49:29.920Z,13.17
2022-12-04T09:52:02.209Z,13.40
2022-12-04T09:54:34.950Z,13.83
2022-12-04T09:57:12.358Z,12.63
2022-12-04T09:59:38.848Z,12.17
2022-12-04T10:02:52.616Z,13.57
2022-12-04T10:05:48.124Z,13.57
2022-12-04T10:08:21.333Z,13.37
2022-12-04T10:11:01.591Z,13.47
2022-12-04T10:14:03.278Z,13.93
2022-12-04T10:16:58.687Z,13.97
2022-12-04T10:20:02.535Z,13.07
2022-12-04T10:22:45.577Z,14.17
2022-12-04T10:25:18.837Z,13.73
2022-12-04T10:27:53.700Z,13.83
2022-12-04T10:30:22.539Z,14.43
2022-12-04T10:32:56.526Z,14.73
2022-12-04T10:35:31.531Z,15.40
2022-12-04T10:38:11.198Z,15.57
2022-12-04T10:40:48.826Z,15.30
2022-12-04T10:43:32.197Z,15.07
2022-12-04T10:45:58.666Z,16.33
2022-12-04T10:48:37.108Z,14.93
2022-12-04T10:51:03.978Z,15.63
2022-12-04T10:53:34.664Z,15.27
2022-12-04T10:56:11.356Z,15.07
2022-12-04T10:58:37.832Z,16.07
2022-12-04T11:01:07.087Z,15.33
2022-12-04T11:03:34.875Z,16.83
2022-12-04T11:06:06.730Z,15.33
2022-12-04T11:08:42.511Z,15.37
2022-12-04T11:11:12.969Z,15.90
2022-12-04T11:13:40.143Z,15.90
2022-12-04T11:16:07.635Z,15.40
2022-12-04T11:18:46.321Z,15.00
2022-12-04T11:21:17.437Z,14.30
2022-12-04T11:23:47.905Z,14.97
2022-12-04T11:26:15.195Z,14.83
2022-12-04T11:28:52.186Z,14.97
2022-12-04T11:31:21.452Z,14.60
2022-12-04T11:34:01.672Z,14.03
2022-12-04T11:36:32.203Z,13.87
2022-12-04T11:39:07.395Z,14.67
2022-12-04T11:41:34.655Z,14.10
2022-12-04T11:44:02.257Z,13.60
2022-12-04T11:46:33.845Z,12.50
2022-12-04T11:49:03.243Z,13.67
2022-12-04T11:51:50.089Z,14.43
2022-12-04T11:54:33.858Z,14.07
2022-12-04T11:57:21.921Z,18.23
2022-12-04T12:00:03.691Z,18.67
2022-12-04T12:02:57.469Z,14.27
2022-12-04T12:05:44.643Z,19.23
2022-12-04T12:08:17.026Z,122.63
2022-12-04T12:11:03.000Z,106.43
2022-12-04T12:13:48.032Z,155.47
2022-12-04T12:16:51.366Z,228.83
2022-12-04T12:19:42.308Z,37.73
2022-12-04T12:22:26.479Z,25.93
2022-12-04T12:24:59.421Z,19.60
2022-12-04T12:27:32.259Z,14.67
2022-12-04T12:30:04.390Z,17.63
2022-12-04T12:32:53.799Z,20.47
2022-12-04T12:35:26.340Z,23.70
2022-12-04T12:37:56.122Z,22.60
2022-12-04T12:40:28.943Z,15.00
2022-12-04T12:43:01.180Z,13.30
2022-12-04T12:45:33.773Z,17.93
2022-12-04T12:48:09.296Z,13.77
2022-12-04T12:50:44.192Z,12.37
2022-12-04T12:53:16.731Z,15.60
2022-12-04T12:55:48.240Z,20.83
2022-12-04T12:58:21.709Z,15.10
2022-12-04T13:01:19.633Z,14.73
2022-12-04T13:04:04.840Z,14.17
2022-12-04T13:06:37.720Z,15.97
2022-12-04T13:09:17.991Z,14.37
2022-12-04T13:11:47.878Z,13.50
2022-12-04T13:14:14.623Z,16.03
2022-12-04T13:16:45.969Z,14.07
2022-12-04T13:19:24.805Z,14.27
2022-12-04T13:22:08.361Z,13.80
2022-12-04T13:24:53.629Z,14.77
2022-12-04T13:27:36.512Z,14.33
2022-12-04T13:30:17.939Z,15.67
2022-12-04T13:33:03.176Z,15.20
2022-12-04T13:35:57.510Z,15.97
2022-12-04T13:39:11.651Z,15.30
2022-12-04T13:41:39.276Z,13.73
2022-12-04T13:44:33.807Z,15.93
2022-12-04T13:47:03.590Z,14.93
2022-12-04T13:49:35.843Z,16.57
2022-12-04T13:52:06.109Z,14.43
2022-12-04T13:54:35.712Z,19.13
2022-12-04T13:57:17.206Z,19.47
2022-12-04T13:59:45.028Z,14.97
2022-12-04T14:02:35.088Z,14.10
2022-12-04T14:05:06.547Z,14.97
2022-12-04T14:07:37.170Z,15.03
2022-12-04T14:10:35.604Z,15.43
2022-12-04T14:13:16.008Z,15.80
2022-12-04T14:15:42.595Z,13.83
2022-12-04T14:18:08.984Z,13.63
2022-12-04T14:20:35.708Z,13.83
2022-12-04T14:23:26.100Z,16.60
2022-12-04T14:25:56.983Z,15.67
2022-12-04T14:28:37.342Z,15.63
2022-12-04T14:31:08.101Z,17.03
2022-12-04T14:34:01.927Z,14.17
2022-12-04T14:36:33.485Z,15.00
2022-12-04T14:39:26.150Z,13.93
2022-12-04T14:42:03.462Z,14.93
2022-12-04T14:44:31.120Z,16.40
2022-12-04T14:47:08.493Z,15.17
2022-12-04T14:49:51.337Z,19.27
2022-12-04T14:52:48.605Z,15.50
2022-12-04T14:55:36.901Z,17.23
2022-12-04T14:58:30.470Z,15.53
2022-12-04T15:00:59.381Z,21.93
2022-12-04T15:03:29.479Z,19.20
2022-12-04T15:06:06.128Z,19.77
2022-12-04T15:08:32.953Z,14.67
2022-12-04T15:11:17.879Z,14.20
2022-12-04T15:13:44.347Z,14.60
2022-12-04T15:16:17.317Z,19.83
2022-12-04T15:18:58.505Z,22.87
2022-12-04T15:21:34.249Z,14.37
2022-12-04T15:24:00.756Z,21.97
2022-12-04T15:26:28.206Z,24.07
2022-12-04T15:28:58.495Z,24.23
2022-12-04T15:31:35.232Z,25.27
2022-12-04T15:34:06.320Z,21.03
2022-12-04T15:37:00.750Z,19.77
2022-12-04T15:39:29.665Z,16.17
2022-12-04T15:42:17.018Z,15.63
2022-12-04T15:45:01.062Z,17.17
2022-12-04T15:47:50.681Z,15.10
2022-12-04T15:50:17.095Z,14.90
2022-12-04T15:52:58.514Z,14.30
2022-12-04T15:55:27.216Z,15.57
2022-12-04T15:58:00.328Z,16.60
2022-12-04T16:00:36.671Z,15.13
2022-12-04T16:03:23.004Z,13.77
2022-12-04T16:05:49.551Z,14.53
2022-12-04T16:08:29.022Z,13.63
2022-12-04T16:11:02.009Z,16.23
2022-12-04T16:13:32.497Z,14.13
2022-12-04T16:16:00.153Z,13.27
2022-12-04T16:18:28.519Z,12.77
2022-12-04T16:20:56.014Z,12.50
2022-12-04T16:23:26.455Z,14.07
2022-12-04T16:25:53.776Z,15.47
2022-12-04T16:28:20.483Z,15.33
2022-12-04T16:30:47.385Z,17.00
2022-12-04T16:33:15.693Z,16.30
2022-12-04T16:35:42.565Z,14.63
2022-12-04T16:38:14.732Z,16.20
2022-12-04T16:40:41.480Z,12.53
2022-12-04T16:43:12.379Z,14.30
2022-12-04T16:45:44.635Z,13.87
2022-12-04T16:48:11.112Z,11.73
2022-12-04T16:50:37.571Z,12.33
2022-12-04T16:53:04.108Z,12.50
2022-12-04T16:55:36.629Z,11.63
2022-12-04T16:58:04.573Z,13.70
2022-12-04T17:00:31.102Z,12.37
2022-12-04T17:02:58.472Z,12.77
2022-12-04T17:05:27.530Z,14.80
2022-12-04T17:07:54.995Z,13.70
2022-12-04T17:10:24.193Z,12.53
2022-12-04T17:12:54.053Z,15.30
2022-12-04T17:15:20.666Z,13.00
2022-12-04T17:17:47.458Z,14.70
2022-12-04T17:20:16.370Z,13.60
2022-12-04T17:22:43.083Z,12.50
2022-12-04T17:25:10.875Z,12.50
2022-12-04T17:27:37.393Z,13.47
2022-12-04T17:30:05.770Z,13.17
2022-12-04T17:32:34.775Z,13.17
2022-12-04T17:35:02.479Z,14.00
2022-12-04T17:37:29.126Z,13.57
2022-12-04T17:39:55.651Z,13.83
2022-12-04T17:42:28.380Z,15.07
2022-12-04T17:44:55.205Z,15.40
2022-12-04T17:47:21.950Z,15.40
2022-12-04T17:49:48.511Z,15.80
2022-12-04T17:52:15.212Z,17.03
2022-12-04T17:54:41.778Z,17.53
2022-12-04T17:57:08.288Z,18.27
2022-12-04T17:59:34.755Z,18.37
2022-12-04T18:02:01.216Z,17.33
2022-12-04T18:04:27.796Z,18.87
2022-12-04T18:06:56.298Z,18.57
2022-12-04T18:09:22.807Z,19.40
2022-12-04T18:11:49.346Z,19.40
2022-12-04T18:14:18.462Z,20.33
2022-12-04T18:16:47.670Z,19.17
2022-12-04T18:19:14.894Z,29.67
2022-12-04T18:21:41.861Z,56.90
2022-12-04T18:24:08.882Z,51.13
2022-12-04T18:26:39.082Z,54.03
2022-12-04T18:29:06.325Z,35.27
2022-12-04T18:31:33.606Z,105.83
2022-12-04T18:34:00.150Z,81.43
2022-12-04T18:36:29.398Z,226.63
2022-12-04T18:38:58.540Z,161.97
2022-12-04T18:41:26.337Z,54.43
2022-12-04T18:43:53.040Z,40.27
2022-12-04T18:46:20.520Z,24.13
2022-12-04T18:48:48.855Z,19.17
2022-12-04T18:51:17.781Z,17.80
2022-12-04T18:53:44.377Z,18.33
2022-12-04T18:56:10.937Z,21.87
2022-12-04T18:58:37.450Z,18.40
2022-12-04T19:01:12.486Z,17.50
2022-12-04T19:03:39.144Z,21.83
2022-12-04T19:06:05.964Z,17.53
2022-12-04T19:08:35.742Z,17.73
2022-12-04T19:11:12.829Z,17.27
2022-12-04T19:13:39.549Z,19.07
2022-12-04T19:16:11.895Z,19.80
2022-12-04T19:18:38.376Z,17.03
2022-12-04T19:21:06.419Z,17.40
2022-12-04T19:23:32.883Z,16.63
2022-12-04T19:26:00.525Z,18.40
2022-12-04T19:28:27.617Z,15.90
2022-12-04T19:30:55.242Z,21.67
2022-12-04T19:33:23.428Z,17.80
2022-12-04T19:35:58.169Z,18.33
2022-12-04T19:38:25.217Z,17.33
2022-12-04T19:41:12.126Z,18.33
2022-12-04T19:46:33.715Z,14.77
2022-12-04T19:49:03.457Z,14.97
2022-12-04T19:51:33.111Z,18.50
2022-12-04T19:54:01.148Z,16.17
2022-12-04T19:56:29.398Z,16.10
2022-12-04T19:58:58.151Z,15.40
2022-12-04T20:01:28.320Z,14.70
2022-12-04T20:03:55.881Z,16.77
2022-12-04T20:06:24.950Z,16.20
2022-12-04T20:08:56.883Z,15.73
2022-12-04T20:11:24.011Z,15.37
2022-12-04T20:13:54.012Z,16.27
2022-12-04T20:16:20.600Z,18.43
2022-12-04T20:18:47.212Z,17.90
2022-12-04T20:21:14.416Z,21.20
2022-12-04T20:23:43.423Z,17.47
2022-12-04T20:26:12.283Z,16.00
2022-12-04T20:28:39.147Z,16.10
2022-12-04T20:31:18.154Z,23.03
2022-12-04T20:33:47.427Z,19.73
2022-12-04T20:36:15.605Z,15.80
2022-12-04T20:38:42.659Z,16.17
2022-12-04T20:41:13.236Z,14.90
2022-12-04T20:43:39.745Z,16.80
2022-12-04T20:46:23.007Z,20.03
2022-12-04T20:48:50.910Z,17.50
2022-12-04T20:51:19.441Z,16.80
2022-12-04T20:53:47.364Z,17.50
2022-12-04T20:56:14.043Z,16.73
2022-12-04T20:58:41.122Z,17.23
2022-12-04T21:01:10.717Z,18.37
2022-12-04T21:03:37.207Z,17.97
2022-12-04T21:06:04.548Z,18.97
2022-12-04T21:08:49.587Z,21.03
2022-12-04T21:11:16.027Z,19.33
2022-12-04T21:14:00.842Z,19.83
2022-12-04T21:16:27.380Z,16.63
2022-12-04T21:18:53.930Z,25.20
2022-12-04T21:21:20.507Z,21.30
2022-12-04T21:23:47.021Z,19.40
2022-12-04T21:26:14.328Z,18.83
2022-12-04T21:28:40.774Z,17.10
2022-12-04T21:31:07.286Z,17.50
2022-12-04T21:33:34.119Z,16.83
2022-12-04T21:36:02.726Z,18.53
2022-12-04T21:38:32.640Z,19.23
2022-12-04T21:40:59.106Z,18.50
2022-12-04T21:43:28.384Z,18.27
2022-12-04T21:46:09.007Z,18.10
2022-12-04T21:48:37.043Z,16.70
2022-12-04T21:51:21.194Z,16.77
2022-12-04T21:53:54.871Z,16.33
2022-12-04T21:56:22.678Z,16.20
2022-12-04T21:58:49.775Z,15.67
2022-12-04T22:01:17.930Z,16.50
2022-12-04T22:03:44.490Z,16.57
2022-12-04T22:06:11.579Z,16.30
2022-12-04T22:08:40.827Z,16.60
2022-12-04T22:11:09.599Z,15.13
2022-12-04T22:13:37.477Z,15.20
2022-12-04T22:16:11.066Z,16.13
2022-12-04T22:18:37.669Z,15.07
2022-12-04T22:21:06.992Z,16.53
2022-12-04T22:23:34.252Z,15.83
2022-12-04T22:26:08.794Z,16.43
2022-12-04T22:28:35.610Z,15.33
2022-12-04T22:31:16.874Z,14.37
2022-12-04T22:33:47.401Z,15.00
2022-12-04T22:36:19.844Z,14.53
2022-12-04T22:39:08.228Z,14.50
2022-12-04T22:41:33.169Z,16.07
2022-12-04T22:43:59.823Z,16.37
2022-12-04T22:46:26.636Z,15.37
2022-12-04T22:48:53.287Z,15.40
2022-12-04T22:51:21.518Z,17.10
2022-12-04T22:53:54.294Z,17.87
2022-12-04T22:56:27.012Z,16.50
2022-12-04T22:58:58.199Z,16.57
2022-12-04T23:01:33.478Z,16.93
2022-12-04T23:04:01.162Z,22.53
2022-12-04T23:06:29.584Z,23.63
2022-12-04T23:08:58.548Z,20.17
2022-12-04T23:11:26.977Z,18.43
2022-12-04T23:13:55.920Z,18.10
2022-12-04T23:16:24.230Z,16.47
2022-12-04T23:18:50.971Z,16.50
2022-12-04T23:21:18.951Z,15.83
2022-12-04T23:23:47.305Z,15.83
2022-12-04T23:26:16.335Z,15.47
2022-12-04T23:28:43.086Z,15.63
2022-12-04T23:31:13.204Z,15.60
2022-12-04T23:33:40.708Z,14.97
2022-12-04T23:36:09.239Z,14.30
2022-12-04T23:38:37.924Z,14.30
2022-12-04T23:41:13.291Z,14.73
2022-12-04T23:43:40.326Z,14.13
2022-12-04T23:46:11.265Z,16.50
2022-12-04T23:48:39.473Z,16.30
2022-12-04T23:51:06.775Z,16.43
2022-12-04T23:53:33.297Z,15.50
2022-12-04T23:56:04.349Z,15.13
2022-12-04T23:58:32.238Z,15.97
